createdAt,value
2018-05-31T00:01:32.893Z,100793.20
2018-05-31T00:06:28.302Z,100795.00
2018-05-31T00:11:23.270Z,100798.86
2018-05-31T00:16:17.853Z,100797.98
2018-05-31T00:21:12.989Z,100786.49
2018-05-31T00:26:08.551Z,100797.08
2018-05-31T00:31:03.435Z,100791.61
2018-05-31T00:35:58.824Z,100797.11
2018-05-31T00:40:54.224Z,100805.49
2018-05-31T00:45:49.064Z,100794.88
2018-05-31T00:50:44.772Z,100791.86
2018-05-31T01:11:42.360Z,100806.71
2018-05-31T01:16:36.942Z,100807.42
2018-05-31T01:21:31.366Z,100808.09
2018-05-31T01:26:25.921Z,100809.01
2018-05-31T01:31:20.463Z,100806.98
2018-05-31T01:36:15.034Z,100810.99
2018-05-31T01:41:09.599Z,100807.48
2018-05-31T01:46:04.902Z,100832.61
2018-05-31T01:50:59.450Z,100835.52
2018-05-31T01:55:53.984Z,100808.06
2018-05-31T02:00:48.551Z,100816.44
2018-05-31T02:05:43.222Z,100813.13
2018-05-31T02:10:38.552Z,100811.17
2018-05-31T02:15:33.847Z,100814.02
2018-05-31T02:20:28.543Z,100810.72
2018-05-31T02:25:23.081Z,100810.07
2018-05-31T02:30:17.754Z,100816.40
2018-05-31T02:35:12.484Z,100825.45
2018-05-31T02:40:07.629Z,100818.38
2018-05-31T02:45:01.991Z,100813.49
2018-05-31T02:49:56.723Z,100820.22
2018-05-31T02:54:51.168Z,100829.08
2018-05-31T02:59:46.649Z,100831.39
2018-05-31T03:04:41.246Z,100834.53
2018-05-31T03:09:35.825Z,100842.98
2018-05-31T03:14:30.250Z,100833.69
2018-05-31T03:19:24.952Z,100831.88
2018-05-31T03:24:19.335Z,100838.80
2018-05-31T03:29:13.904Z,100852.68
2018-05-31T03:34:08.292Z,100844.33
2018-05-31T03:39:02.867Z,100839.38
2018-05-31T03:43:57.403Z,100842.65
2018-05-31T03:48:51.973Z,100832.87
2018-05-31T03:53:46.485Z,100847.16
2018-05-31T03:58:41.084Z,100841.03
2018-05-31T04:03:35.644Z,100832.03
2018-05-31T04:08:30.342Z,100841.86
2018-05-31T04:13:24.892Z,100830.35
2018-05-31T04:18:19.463Z,100829.20
2018-05-31T04:23:14.229Z,100834.78
2018-05-31T04:28:08.997Z,100843.73
2018-05-31T04:33:03.365Z,100843.13
2018-05-31T04:37:57.936Z,100849.64
2018-05-31T04:42:52.676Z,100847.88
2018-05-31T04:47:47.473Z,100847.81
2018-05-31T04:52:42.251Z,100856.84
2018-05-31T04:57:38.490Z,100858.26
2018-05-31T05:02:33.636Z,100865.27
2018-05-31T05:07:28.954Z,100860.59
2018-05-31T05:12:23.528Z,100854.34
2018-05-31T05:17:18.061Z,100852.27
2018-05-31T05:22:13.393Z,100864.77
2018-05-31T05:27:08.797Z,100867.69
2018-05-31T05:32:03.369Z,100863.20
2018-05-31T05:36:57.750Z,100883.78
2018-05-31T05:41:53.037Z,100893.92
2018-05-31T05:46:47.411Z,100894.37
2018-05-31T05:51:43.317Z,100891.76
2018-05-31T05:56:38.905Z,100902.92
2018-05-31T06:01:33.764Z,100895.23
2018-05-31T06:06:28.178Z,100894.39
2018-05-31T06:11:23.794Z,100903.70
2018-05-31T06:16:19.440Z,100913.74
2018-05-31T06:21:15.064Z,100918.19
2018-05-31T06:26:09.455Z,100923.20
2018-05-31T06:31:03.762Z,100920.54
2018-05-31T06:35:58.339Z,100923.02
2018-05-31T06:40:53.463Z,100920.95
2018-05-31T06:45:48.846Z,100911.52
2018-05-31T06:50:43.464Z,100907.44
2018-05-31T06:55:37.902Z,100907.75
2018-05-31T07:00:32.269Z,100911.42
2018-05-31T07:05:26.632Z,100908.22
2018-05-31T07:10:22.380Z,100914.11
2018-05-31T07:15:16.873Z,100922.84
2018-05-31T07:20:11.212Z,100926.47
2018-05-31T07:25:05.346Z,100937.03
2018-05-31T07:29:59.697Z,100941.31
2018-05-31T07:34:54.211Z,100946.62
2018-05-31T07:39:48.323Z,100952.21
2018-05-31T07:44:43.880Z,100953.13
2018-05-31T07:49:39.012Z,100948.30
2018-05-31T07:54:33.377Z,100948.08
2018-05-31T07:59:29.248Z,100951.58
2018-05-31T08:04:23.621Z,100954.53
2018-05-31T08:09:18.727Z,100960.11
2018-05-31T08:14:13.214Z,100954.61
2018-05-31T08:19:07.564Z,100957.05
2018-05-31T08:24:02.703Z,100959.41
2018-05-31T08:28:57.110Z,100958.08
2018-05-31T08:33:51.465Z,100953.09
2018-05-31T08:38:45.897Z,100955.08
2018-05-31T08:43:40.458Z,100954.08
2018-05-31T08:48:34.829Z,100959.51
2018-05-31T08:53:29.175Z,100958.58
2018-05-31T08:58:23.648Z,100967.64
2018-05-31T09:03:18.075Z,100964.11
2018-05-31T09:08:12.552Z,100976.61
2018-05-31T09:13:07.065Z,100988.39
2018-05-31T09:18:01.595Z,100984.13
2018-05-31T09:22:55.968Z,100986.42
2018-05-31T09:27:50.692Z,100988.89
2018-05-31T09:32:45.041Z,100987.38
2018-05-31T09:37:40.151Z,100986.33
2018-05-31T09:42:35.106Z,100985.23
2018-05-31T09:47:29.470Z,100980.84
2018-05-31T09:52:24.120Z,100991.00
2018-05-31T09:57:19.558Z,100997.98
2018-05-31T10:02:14.978Z,100995.80
2018-05-31T10:07:10.376Z,100996.67
2018-05-31T10:12:05.031Z,100988.13
2018-05-31T10:16:59.650Z,100996.17
2018-05-31T10:21:54.271Z,100993.55
2018-05-31T10:26:48.949Z,100995.64
2018-05-31T10:31:44.422Z,100981.48
2018-05-31T10:36:39.248Z,100966.73
2018-05-31T10:41:33.901Z,100959.66
2018-05-31T10:46:29.938Z,100962.55
2018-05-31T10:51:25.680Z,100960.34
2018-05-31T10:56:21.698Z,100967.72
2018-05-31T11:01:17.182Z,100962.73
2018-05-31T11:06:11.960Z,100956.34
2018-05-31T11:11:06.716Z,100958.92
2018-05-31T11:16:01.562Z,100969.73
2018-05-31T11:20:57.026Z,100959.38
2018-05-31T11:25:51.729Z,100964.02
2018-05-31T11:30:46.601Z,100961.25
2018-05-31T11:35:41.370Z,100953.50
2018-05-31T11:40:36.293Z,100944.38
2018-05-31T11:45:30.909Z,100940.91
2018-05-31T11:50:25.562Z,100944.56
2018-05-31T11:55:20.304Z,100940.89
2018-05-31T12:00:15.234Z,100937.93
2018-05-31T12:05:09.868Z,100936.91
2018-05-31T12:10:04.540Z,100923.22
2018-05-31T12:14:59.178Z,100921.79
2018-05-31T12:19:53.809Z,100910.00
2018-05-31T12:24:48.452Z,100910.38
2018-05-31T12:29:43.864Z,100915.78
2018-05-31T12:34:39.447Z,100917.31
2018-05-31T12:39:34.266Z,100908.68
2018-05-31T12:44:29.946Z,100918.31
2018-05-31T12:49:24.769Z,100915.46
2018-05-31T12:54:20.353Z,100908.89
2018-05-31T12:59:15.473Z,100917.92
2018-05-31T13:04:11.076Z,100899.92
2018-05-31T13:09:05.657Z,100886.22
2018-05-31T13:14:01.063Z,100871.52
2018-05-31T13:18:58.521Z,100869.21
2018-05-31T13:23:54.259Z,100869.94
2018-05-31T13:28:49.103Z,100868.65
2018-05-31T13:33:44.187Z,100870.84
2018-05-31T13:38:38.914Z,100873.84
2018-05-31T13:43:33.749Z,100874.68
2018-05-31T13:48:29.203Z,100879.93
2018-05-31T13:53:24.233Z,100871.59
2018-05-31T13:58:25.064Z,100855.67
2018-05-31T14:03:21.642Z,100868.81
2018-05-31T14:08:16.467Z,100874.59
2018-05-31T14:13:11.358Z,100871.63
2018-05-31T14:18:05.652Z,100874.27
2018-05-31T14:23:01.034Z,100865.50
2018-05-31T14:27:55.729Z,100871.30
2018-05-31T14:32:50.393Z,100865.47
2018-05-31T14:37:45.206Z,100858.76
2018-05-31T14:42:39.855Z,100853.23
2018-05-31T14:47:34.558Z,100850.16
2018-05-31T14:52:29.210Z,100857.21
2018-05-31T14:57:23.830Z,100848.81
2018-05-31T15:02:19.228Z,100844.67
2018-05-31T15:07:14.025Z,100838.53
2018-05-31T15:12:08.723Z,100834.00
2018-05-31T15:17:03.389Z,100825.26
2018-05-31T15:21:58.780Z,100819.56
2018-05-31T15:26:53.410Z,100821.27
2018-05-31T15:31:48.739Z,100821.41
2018-05-31T15:36:44.165Z,100819.06
2018-05-31T15:41:39.606Z,100818.11
2018-05-31T15:46:35.010Z,100801.80
2018-05-31T15:51:29.814Z,100797.83
2018-05-31T15:56:24.452Z,100793.91
2018-05-31T16:01:19.852Z,100794.28
2018-05-31T16:06:14.593Z,100793.61
2018-05-31T16:11:09.363Z,100795.20
2018-05-31T16:16:04.001Z,100794.37
2018-05-31T16:20:58.645Z,100792.80
2018-05-31T16:25:53.533Z,100780.93
2018-05-31T16:30:48.420Z,100783.28
2018-05-31T16:35:43.087Z,100780.44
2018-05-31T16:40:37.773Z,100773.49
2018-05-31T16:45:32.548Z,100766.06
2018-05-31T16:50:27.292Z,100774.12
2018-05-31T16:55:22.720Z,100769.23
2018-05-31T17:00:18.396Z,100774.81
2018-05-31T17:05:13.109Z,100783.13
2018-05-31T17:10:07.711Z,100796.45
2018-05-31T17:15:02.378Z,100798.20
2018-05-31T17:19:57.832Z,100793.77
2018-05-31T17:24:52.535Z,100807.91
2018-05-31T17:29:47.379Z,100811.13
2018-05-31T17:34:42.350Z,100808.73
2018-05-31T17:39:36.736Z,100808.45
2018-05-31T17:44:31.260Z,100800.91
2018-05-31T17:49:25.839Z,100811.39
2018-05-31T17:54:20.274Z,100812.94
2018-05-31T17:59:14.689Z,100806.30
2018-05-31T18:04:09.179Z,100805.25
2018-05-31T18:09:03.141Z,100802.78
2018-05-31T18:13:57.580Z,100811.25
2018-05-31T18:18:52.724Z,100812.79
2018-05-31T18:23:47.188Z,100819.25
2018-05-31T18:28:41.695Z,100817.75
2018-05-31T18:33:36.143Z,100810.91
2018-05-31T18:38:30.602Z,100810.67
2018-05-31T18:43:25.030Z,100814.50
2018-05-31T18:48:28.571Z,100808.39
2018-05-31T18:53:25.296Z,100816.33
2018-05-31T18:58:19.840Z,100818.03
2018-05-31T19:03:17.265Z,100823.63
2018-05-31T19:08:12.579Z,100822.39
2018-05-31T19:13:16.061Z,100837.03
2018-05-31T19:18:18.490Z,100844.88
2018-05-31T19:23:13.097Z,100853.95
2018-05-31T19:28:07.501Z,100861.27
2018-05-31T19:33:02.955Z,100870.95
2018-05-31T19:37:57.539Z,100880.84
2018-05-31T19:42:57.106Z,100886.23
2018-05-31T19:47:51.492Z,100898.95
2018-05-31T19:52:51.415Z,100901.27
2018-05-31T19:57:51.517Z,100918.22
2018-05-31T20:02:51.594Z,100921.09
2018-05-31T20:07:47.103Z,100921.31
2018-05-31T20:12:42.539Z,100922.90
2018-05-31T20:17:37.980Z,100922.44
2018-05-31T20:22:32.551Z,100921.30
2018-05-31T20:27:28.113Z,100927.53
2018-05-31T20:32:23.999Z,100927.03
2018-05-31T20:37:21.559Z,100926.28
2018-05-31T20:42:16.254Z,100920.44
2018-05-31T20:47:12.847Z,100913.38
2018-05-31T20:52:08.431Z,100901.44
2018-05-31T20:57:03.038Z,100903.75
2018-05-31T21:01:57.488Z,100904.89
2018-05-31T21:06:53.075Z,100898.08
2018-05-31T21:11:47.612Z,100905.55
2018-05-31T21:16:42.392Z,100902.02
2018-05-31T21:21:36.794Z,100896.97
2018-05-31T21:26:31.401Z,100898.09
2018-05-31T21:31:26.589Z,100884.84
2018-05-31T21:36:22.014Z,100894.94
2018-05-31T21:41:16.968Z,100905.48
2018-05-31T21:46:11.412Z,100909.13
2018-05-31T21:51:06.080Z,100914.02
2018-05-31T21:56:00.645Z,100916.45
2018-05-31T22:00:57.216Z,100913.58
2018-05-31T22:05:51.999Z,100912.30
2018-05-31T22:10:47.307Z,100907.61
2018-05-31T22:15:41.966Z,100905.57
2018-05-31T22:20:36.411Z,100898.03
2018-05-31T22:25:30.971Z,100896.03
2018-05-31T22:30:25.521Z,100882.66
2018-05-31T22:35:19.918Z,100879.97
2018-05-31T22:40:14.581Z,100894.03
2018-05-31T22:45:08.981Z,100901.61
2018-05-31T22:50:03.419Z,100891.56
2018-05-31T22:54:58.139Z,100882.94
2018-05-31T22:59:52.818Z,100892.62
2018-05-31T23:04:47.949Z,100890.58
2018-05-31T23:09:42.321Z,100886.81
2018-05-31T23:14:37.592Z,100892.24
2018-05-31T23:19:32.251Z,100890.03
2018-05-31T23:24:27.481Z,100880.58
2018-05-31T23:29:23.160Z,100876.00
2018-05-31T23:34:17.707Z,100864.94
2018-05-31T23:39:13.485Z,100870.20
2018-05-31T23:44:07.964Z,100877.42
2018-05-31T23:49:03.220Z,100885.51
2018-05-31T23:53:57.739Z,100890.80
2018-05-31T23:58:52.140Z,100894.73
